Portada
METAR-TAF:

METAR-TAF

Aeropuertos :

Al Udeid, Qatar

latitud: 25-07N, longitud: 051-18E, altitud: 42 m

Observación

El informe se hizo hace 51 minutos, a las 18:56 UTC
Viento 5 kt del oeste
Temperatura 14°C
Humedad 55%
Presión 1022 hPa
Visibilidad: 9000 m
Cielo despejado
calima

METAR: OTBH 201856Z 26005KT 9000 HZ CLR 14/05 A3017 RMK AO2A SLP219 T01360047 $

Hora: 22:47 (19:47 UTC)

Pronóstico

El informe se hizo hace 4 horas y 47 minutos, a las 15:00 UTC
Pronóstico válido del 20 a las 15 UTC al 21 a las 21 UTC
Viento 9 kt del noroeste
Visibilidad: 9000 m
Cielo despejado
calima
Evolucionando progresivamente
del 21 a las 12 UTC al 21 a las 13 UTC
Viento 6 kt con dirección variable
Visibilidad: 9000 m
Escasas nubes a una altura de 22000 ft
calima

TAF: OTBH 201500Z 2015/2121 31009KT 9000 HZ SKC QNH3009INS BECMG 2112/2113 VRB06KT 9000 HZ FEW220 QNH3016INS TX22/2110Z TN14/2102Z

Observaciones y pronósticos meteorológicos de más de 4000 aeropuertos (mensajes METAR y TAF).

Los puntos amarillos y rojos representan las estaciones disponibles.

Ponga el ratón en el punto deseado para ver el nombre de la estación.

Haga clic para ver las observaciones y los pronósticos meteorológicos.

Para cambiar el mapa : haga clic en los botones verdes con una cruz de color negro para hacer un zoom, en el botón verde con un guión para alejar o en las flechas verdes para mapas adyacentes.


METAR-TAF: